Time;durP1;ratioP1;P1;durP2;ratioP2;P2;SDS_P1;SDS_P2;PMS_P1;PMS_P2;Temp;Humidity;BMP_temperature;BMP_pressure;BME280_temperature;BME280_humidity;BME280_pressure;Samples;Min_cycle;Max_cycle;Signal;HPM_P1;HPM_P2
2021/08/28 00:01:11;;;;;;;60.72;30.85;;;;;;;-145.01;100.00;64805.59;4992916;28;20493;-64
2021/08/28 00:03:36;;;;;;;63.38;32.33;;;;;;;-145.01;100.00;64805.59;4992068;28;20034;-64
2021/08/28 00:06:02;;;;;;;69.22;30.52;;;;;;;-145.01;100.00;64805.59;4992963;28;20405;-64
2021/08/28 00:08:27;;;;;;;54.83;30.63;;;;;;;-145.01;100.00;64805.59;4992015;28;20120;-64
2021/08/28 00:10:52;;;;;;;64.15;31.25;;;;;;;-145.01;100.00;64805.59;4992747;28;20038;-63
2021/08/28 00:13:18;;;;;;;61.97;32.40;;;;;;;-145.01;100.00;64805.59;4993079;28;20350;-63
2021/08/28 00:15:43;;;;;;;70.18;32.25;;;;;;;-145.01;100.00;64805.59;4991602;28;20046;-63
2021/08/28 00:18:09;;;;;;;62.63;32.05;;;;;;;-145.01;100.00;64805.59;4993117;28;20023;-63
2021/08/28 00:20:35;;;;;;;62.72;35.00;;;;;;;-145.01;100.00;64805.59;4992663;28;20030;-63
2021/08/28 00:23:04;;;;;;;61.33;32.75;;;;;;;-145.01;100.00;64805.59;4992969;28;20033;-64
2021/08/28 00:25:29;;;;;;;62.38;32.70;;;;;;;-145.01;100.00;64805.59;4992683;28;20038;-64
2021/08/28 00:27:55;;;;;;;62.15;32.13;;;;;;;-145.01;100.00;64805.59;4990940;28;20065;-64
2021/08/28 00:30:20;;;;;;;66.78;32.35;;;;;;;-145.01;100.00;64805.59;4990390;28;20046;-64
2021/08/28 00:32:46;;;;;;;68.53;36.03;;;;;;;-145.01;100.00;64805.59;4992876;28;20464;-64
2021/08/28 00:35:11;;;;;;;70.85;34.17;;;;;;;-145.01;100.00;64805.59;4993387;28;20030;-64
2021/08/28 00:37:37;;;;;;;67.70;34.75;;;;;;;-145.01;100.00;64805.59;4997041;28;20030;-64
2021/08/28 00:40:03;;;;;;;69.25;34.90;;;;;;;-145.01;100.00;64805.59;4996594;28;20381;-64
2021/08/28 00:42:29;;;;;;;71.45;36.83;;;;;;;-145.01;100.00;64805.59;4996899;28;20037;-64
2021/08/28 00:44:54;;;;;;;70.10;35.63;;;;;;;-145.01;100.00;64805.59;4996661;28;20373;-64
2021/08/28 00:47:20;;;;;;;72.88;34.78;;;;;;;-145.01;100.00;64805.59;4996236;28;20038;-64
2021/08/28 00:49:49;;;;;;;67.07;31.92;;;;;;;-145.01;100.00;64805.59;4996610;28;20449;-64
2021/08/28 00:52:15;;;;;;;73.57;34.22;;;;;;;-145.01;100.00;64805.59;4996103;28;20068;-64
2021/08/28 00:54:40;;;;;;;70.38;32.80;;;;;;;-145.01;100.00;64805.59;4996662;28;20030;-64
2021/08/28 00:57:07;;;;;;;84.32;34.30;;;;;;;-145.01;100.00;64805.59;4996127;28;20481;-64
2021/08/28 00:59:33;;;;;;;79.93;35.50;;;;;;;-145.01;100.00;64805.59;4995237;28;20026;-64
2021/08/28 01:01:58;;;;;;;83.90;35.90;;;;;;;-145.01;100.00;64805.59;4996138;28;20117;-64
2021/08/28 01:04:24;;;;;;;76.63;36.03;;;;;;;-145.01;100.00;64805.59;4995212;28;20041;-64
2021/08/28 01:07:03;;;;;;;74.00;35.88;;;;;;;-145.01;100.00;64805.59;4994774;28;20042;-64
2021/08/28 01:09:31;;;;;;;85.63;36.35;;;;;;;-145.01;100.00;64805.59;4996149;28;20401;-64
2021/08/28 01:12:05;;;;;;;87.78;36.72;;;;;;;-145.01;100.00;64805.59;4994416;28;20049;-64
2021/08/28 01:14:31;;;;;;;83.15;37.08;;;;;;;-145.01;100.00;64805.59;4996413;28;20400;-64
2021/08/28 01:16:59;;;;;;;80.63;38.78;;;;;;;-145.01;100.00;64805.59;4994383;28;20038;-64
2021/08/28 01:19:41;;;;;;;82.97;37.08;;;;;;;-145.01;100.00;64805.59;4996294;28;20508;-64
2021/08/28 01:22:12;;;;;;;83.70;37.45;;;;;;;-145.01;100.00;64805.59;4994511;28;20042;-64
2021/08/28 01:24:39;;;;;;;87.07;37.90;;;;;;;-145.01;100.00;64805.59;4979030;28;20077;-64
2021/08/28 01:27:13;;;;;;;90.90;38.80;;;;;;;-145.01;100.00;64805.59;4994103;28;20046;-64
2021/08/28 01:29:38;;;;;;;87.45;38.25;;;;;;;-145.01;100.00;64805.59;4994716;28;20080;-64
2021/08/28 01:32:04;;;;;;;84.10;37.05;;;;;;;-145.01;100.00;64805.59;4994270;28;20035;-64
2021/08/28 01:34:30;;;;;;;81.50;37.38;;;;;;;-145.01;100.00;64805.59;4995755;28;20061;-64
2021/08/28 01:36:56;;;;;;;87.80;37.75;;;;;;;-145.01;100.00;64805.59;4995448;28;20043;-64
2021/08/28 01:39:21;;;;;;;85.70;39.50;;;;;;;-145.01;100.00;64805.59;4978405;28;20018;-64
2021/08/28 01:41:49;;;;;;;79.05;38.15;;;;;;;-145.01;100.00;64805.59;4993977;28;20034;-65
2021/08/28 01:44:14;;;;;;;93.10;39.35;;;;;;;-145.01;100.00;64805.59;4974319;28;20538;-64
2021/08/28 01:46:40;;;;;;;87.13;38.65;;;;;;;-145.01;100.00;64805.59;4987233;28;20034;-64
2021/08/28 01:49:08;;;;;;;77.65;37.15;;;;;;;-145.01;100.00;64805.59;4994518;28;20496;-64
2021/08/28 01:51:34;;;;;;;85.47;39.50;;;;;;;-145.01;100.00;64805.59;4993822;28;20072;-64
2021/08/28 01:53:59;;;;;;;85.35;39.10;;;;;;;-145.01;100.00;64805.59;4994279;28;20113;-64
2021/08/28 01:56:25;;;;;;;100.90;42.17;;;;;;;-145.01;100.00;64805.59;5026554;28;20034;-64
2021/08/28 01:58:51;;;;;;;87.13;39.33;;;;;;;-145.01;100.00;64805.59;4995517;28;20029;-64
2021/08/28 02:01:16;;;;;;;92.55;41.25;;;;;;;-145.01;100.00;64805.59;4993705;28;20489;-64
2021/08/28 02:03:42;;;;;;;95.90;38.38;;;;;;;-145.01;100.00;64805.59;4995294;28;20034;-64
2021/08/28 02:06:09;;;;;;;86.97;39.47;;;;;;;-145.01;100.00;64805.59;4994830;28;20039;-64
2021/08/28 02:08:42;;;;;;;97.03;43.13;;;;;;;-145.01;100.00;64805.59;4994193;28;20026;-64
2021/08/28 02:11:12;;;;;;;86.95;39.67;;;;;;;-145.01;100.00;64805.59;4993363;28;20077;-64
2021/08/28 02:13:41;;;;;;;88.03;41.97;;;;;;;-145.01;100.00;64805.59;4995157;28;20026;-64
2021/08/28 02:16:11;;;;;;;86.10;39.35;;;;;;;-145.01;100.00;64805.59;4993404;28;20034;-64
2021/08/28 02:18:52;;;;;;;89.90;39.58;;;;;;;-145.01;100.00;64805.59;4977590;28;20073;-64
2021/08/28 02:21:18;;;;;;;80.00;36.30;;;;;;;-145.01;100.00;64805.59;4978014;28;20043;-64
2021/08/28 02:23:47;;;;;;;82.55;37.53;;;;;;;-145.01;100.00;64805.59;4993797;28;20029;-64
2021/08/28 02:26:19;;;;;;;77.05;35.63;;;;;;;-145.01;100.00;64805.59;4993292;28;20045;-64
2021/08/28 02:28:51;;;;;;;86.05;36.90;;;;;;;-145.01;100.00;64805.59;4993328;28;20033;-64
2021/08/28 02:31:18;;;;;;;76.88;36.15;;;;;;;-145.01;100.00;64805.59;4992913;28;20050;-64
2021/08/28 02:33:43;;;;;;;85.03;35.47;;;;;;;-145.01;100.00;64805.59;4993610;28;20034;-64
2021/08/28 02:36:08;;;;;;;80.80;34.78;;;;;;;-145.01;100.00;64805.59;4993091;28;20038;-64
2021/08/28 02:38:34;;;;;;;80.57;34.97;;;;;;;-145.01;100.00;64805.59;4977377;28;20425;-64
2021/08/28 02:41:02;;;;;;;90.53;38.17;;;;;;;-145.01;100.00;64805.59;4993036;28;20035;-64
2021/08/28 02:43:28;;;;;;;84.13;36.38;;;;;;;-145.01;100.00;64805.59;4994529;28;20033;-64
2021/08/28 02:45:53;;;;;;;89.45;35.88;;;;;;;-145.01;100.00;64805.59;4992912;28;20042;-64
2021/08/28 02:48:19;;;;;;;90.13;37.00;;;;;;;-145.01;100.00;64805.59;4977268;28;20034;-64
2021/08/28 02:50:45;;;;;;;102.20;38.75;;;;;;;-145.01;100.00;64805.59;4976754;28;20037;-64
2021/08/28 02:53:14;;;;;;;94.40;38.17;;;;;;;-145.01;100.00;64805.59;4976690;28;20034;-64
2021/08/28 02:55:39;;;;;;;98.25;37.53;;;;;;;-145.01;100.00;64805.59;4992632;28;20038;-64
2021/08/28 02:58:05;;;;;;;97.85;39.67;;;;;;;-145.01;100.00;64805.59;4976013;28;20022;-64
2021/08/28 03:00:30;;;;;;;93.72;37.80;;;;;;;-145.01;100.00;64805.59;4992471;28;20038;-64
2021/08/28 03:02:56;;;;;;;115.18;38.83;;;;;;;-145.01;100.00;64805.59;4992831;28;20030;-64
2021/08/28 03:05:21;;;;;;;100.20;38.63;;;;;;;-145.01;100.00;64805.59;4993891;28;20046;-64
2021/08/28 03:07:47;;;;;;;94.40;38.53;;;;;;;-145.01;100.00;64805.59;4992871;28;20385;-64
2021/08/28 03:10:12;;;;;;;111.43;40.33;;;;;;;-145.01;100.00;64805.59;4992213;28;20513;-64
2021/08/28 03:12:38;;;;;;;97.25;37.40;;;;;;;-145.01;100.00;64805.59;4976554;28;20026;-64
2021/08/28 03:15:05;;;;;;;108.53;39.42;;;;;;;-145.01;100.00;64805.59;4992221;28;20034;-64
2021/08/28 03:17:30;;;;;;;116.55;39.67;;;;;;;-145.01;100.00;64805.59;4994163;28;20365;-64
2021/08/28 03:19:56;;;;;;;109.22;40.53;;;;;;;-145.01;100.00;64805.59;4993992;28;20054;-64
2021/08/28 03:22:21;;;;;;;113.15;39.60;;;;;;;-145.01;100.00;64805.59;4992184;28;20089;-64
2021/08/28 03:24:50;;;;;;;116.82;40.70;;;;;;;-145.01;100.00;64805.59;4992643;28;20035;-64
2021/08/28 03:27:16;;;;;;;123.45;41.70;;;;;;;-145.01;100.00;64805.59;4993332;28;20047;-64
2021/08/28 03:29:41;;;;;;;122.18;41.53;;;;;;;-145.01;100.00;64805.59;4960156;28;20381;-64
2021/08/28 03:32:06;;;;;;;117.43;39.45;;;;;;;-145.01;100.00;64805.59;4976105;28;20030;-64
2021/08/28 03:34:32;;;;;;;112.68;38.67;;;;;;;-145.01;100.00;64805.59;4993701;28;20125;-64
2021/08/28 03:36:58;;;;;;;101.07;36.78;;;;;;;-145.01;100.00;64805.59;4993232;28;20488;-64
2021/08/28 03:39:23;;;;;;;113.18;39.80;;;;;;;-145.01;100.00;64805.59;4993454;28;20022;-64
2021/08/28 03:41:49;;;;;;;113.82;39.40;;;;;;;-145.01;100.00;64805.59;4993165;28;20060;-64
2021/08/28 03:44:17;;;;;;;113.68;38.30;;;;;;;-145.01;100.00;64805.59;4992316;28;20041;-64
2021/08/28 03:46:46;;;;;;;97.25;38.15;;;;;;;-145.01;100.00;64805.59;4993032;28;20038;-64
2021/08/28 03:49:12;;;;;;;99.13;36.85;;;;;;;-145.01;100.00;64805.59;4992364;28;20050;-64
2021/08/28 03:51:37;;;;;;;101.65;39.55;;;;;;;-145.01;100.00;64805.59;4993022;28;20069;-64
2021/08/28 03:54:03;;;;;;;108.10;37.78;;;;;;;-145.01;100.00;64805.59;4993360;28;20056;-64
2021/08/28 03:56:28;;;;;;;102.70;37.00;;;;;;;-145.01;100.00;64805.59;4993136;28;20500;-64
2021/08/28 03:58:54;;;;;;;105.97;37.17;;;;;;;-145.01;100.00;64805.59;4992062;28;20033;-64
2021/08/28 04:01:20;;;;;;;101.63;35.88;;;;;;;-145.01;100.00;64805.59;4992994;28;20054;-64
2021/08/28 04:03:45;;;;;;;96.60;35.05;;;;;;;-145.01;100.00;64805.59;4993216;28;20113;-64
2021/08/28 04:06:11;;;;;;;90.75;34.47;;;;;;;-145.01;100.00;64805.59;4991666;28;20034;-64
2021/08/28 04:08:36;;;;;;;90.95;36.00;;;;;;;-145.01;100.00;64805.59;4993112;28;20477;-64
2021/08/28 04:11:02;;;;;;;95.30;35.20;;;;;;;-145.01;100.00;64805.59;4992545;28;20433;-64
2021/08/28 04:13:27;;;;;;;98.03;34.83;;;;;;;-145.01;100.00;64805.59;4993182;28;20026;-64
2021/08/28 04:15:54;;;;;;;101.20;37.03;;;;;;;-145.01;100.00;64805.59;4992977;28;20469;-64
2021/08/28 04:18:20;;;;;;;93.70;35.75;;;;;;;-145.01;100.00;64805.59;4992989;28;20030;-64
2021/08/28 04:20:45;;;;;;;96.75;36.38;;;;;;;-145.01;100.00;64805.59;4992803;28;20041;-64
2021/08/28 04:23:11;;;;;;;87.20;34.88;;;;;;;-145.01;100.00;64805.59;4991804;28;20030;-64
2021/08/28 04:25:36;;;;;;;101.65;36.95;;;;;;;-145.01;100.00;64805.59;4992617;28;20425;-64
2021/08/28 04:28:02;;;;;;;100.32;35.42;;;;;;;-145.01;100.00;64805.59;4992559;28;20030;-64
2021/08/28 04:30:28;;;;;;;104.10;34.92;;;;;;;-145.01;100.00;64805.59;4992630;28;20038;-64
2021/08/28 04:32:54;;;;;;;93.22;35.58;;;;;;;-145.01;100.00;64805.59;4993094;28;20480;-64
2021/08/28 04:35:19;;;;;;;88.93;34.30;;;;;;;-145.01;100.00;64805.59;4992690;28;20031;-64
2021/08/28 04:37:45;;;;;;;92.70;36.00;;;;;;;-145.01;100.00;64805.59;4992976;28;20338;-64
2021/08/28 04:40:11;;;;;;;96.50;35.95;;;;;;;-145.01;100.00;64805.59;4992511;28;20031;-64
2021/08/28 04:42:37;;;;;;;89.95;34.28;;;;;;;-145.01;100.00;64805.59;4992813;28;20069;-64
2021/08/28 04:45:03;;;;;;;92.30;34.80;;;;;;;-145.01;100.00;64805.59;4992570;28;20038;-64
2021/08/28 04:47:29;;;;;;;82.85;32.80;;;;;;;-145.01;100.00;64805.59;4993020;28;20045;-64
2021/08/28 04:49:54;;;;;;;75.70;30.48;;;;;;;-145.01;100.00;64805.59;4992683;28;20469;-64
2021/08/28 04:52:19;;;;;;;90.63;35.47;;;;;;;-145.01;100.00;64805.59;4991075;28;20034;-64
2021/08/28 04:54:45;;;;;;;96.05;34.50;;;;;;;-145.01;100.00;64805.59;4992748;28;20102;-64
2021/08/28 04:57:10;;;;;;;92.50;34.15;;;;;;;-145.01;100.00;64805.59;4992299;28;20042;-64
2021/08/28 04:59:36;;;;;;;97.50;35.13;;;;;;;-145.01;100.00;64805.59;4991586;28;20034;-63
2021/08/28 05:02:02;;;;;;;100.20;36.92;;;;;;;-145.01;100.00;64805.59;4992293;28;20049;-64
2021/08/28 05:04:27;;;;;;;96.00;36.30;;;;;;;-145.01;100.00;64805.59;4992704;28;20392;-64
2021/08/28 05:06:53;;;;;;;94.63;34.67;;;;;;;-145.01;100.00;64805.59;4992414;28;20038;-64
2021/08/28 05:09:18;;;;;;;92.85;35.55;;;;;;;-145.01;100.00;64805.59;4992505;28;20162;-64
2021/08/28 05:11:43;;;;;;;97.68;36.22;;;;;;;-145.01;100.00;64805.59;4992329;28;20480;-64
2021/08/28 05:14:09;;;;;;;102.45;37.75;;;;;;;-145.01;100.00;64805.59;4991584;28;20035;-64
2021/08/28 05:16:34;;;;;;;100.93;38.75;;;;;;;-145.01;100.00;64805.59;4992261;28;20493;-64
2021/08/28 05:19:00;;;;;;;105.35;38.38;;;;;;;-145.01;100.00;64805.59;4991363;28;20030;-63
2021/08/28 05:21:25;;;;;;;105.68;37.05;;;;;;;-145.01;100.00;64805.59;4991842;28;20034;-64
2021/08/28 05:23:51;;;;;;;105.43;37.13;;;;;;;-145.01;100.00;64805.59;4996056;28;20030;-64
2021/08/28 05:26:16;;;;;;;113.47;37.35;;;;;;;-145.01;100.00;64805.59;4994246;28;20080;-64
2021/08/28 05:28:42;;;;;;;100.63;39.38;;;;;;;-145.01;100.00;64805.59;4995900;28;20102;-64
2021/08/28 05:31:07;;;;;;;106.05;39.15;;;;;;;-145.01;100.00;64805.59;4995409;28;20508;-64
2021/08/28 05:33:32;;;;;;;101.82;38.00;;;;;;;-145.01;100.00;64805.59;4995903;28;20046;-64
2021/08/28 05:35:58;;;;;;;102.57;36.72;;;;;;;-145.01;100.00;64805.59;4994197;28;20030;-64
2021/08/28 05:38:23;;;;;;;104.30;40.45;;;;;;;-145.01;100.00;64805.59;4995847;28;20034;-64
2021/08/28 05:40:49;;;;;;;98.13;37.50;;;;;;;-145.01;100.00;64805.59;4995329;28;20034;-64
2021/08/28 05:43:14;;;;;;;101.32;38.53;;;;;;;-145.01;100.00;64805.59;4995701;28;20022;-64
2021/08/28 05:45:40;;;;;;;100.38;36.65;;;;;;;-145.01;100.00;64805.59;4995476;28;20042;-64
2021/08/28 05:48:05;;;;;;;105.10;37.33;;;;;;;-145.01;100.00;64805.59;4995676;28;20038;-64
2021/08/28 05:50:30;;;;;;;93.05;35.10;;;;;;;-145.01;100.00;64805.59;4977767;28;20073;-64
2021/08/28 05:52:56;;;;;;;85.25;34.05;;;;;;;-145.01;100.00;64805.59;4995612;28;20018;-64
2021/08/28 05:55:21;;;;;;;84.43;33.70;;;;;;;-145.01;100.00;64805.59;4995123;28;20034;-64
2021/08/28 05:57:47;;;;;;;82.95;31.67;;;;;;;-145.01;100.00;64805.59;4995816;28;20038;-64
2021/08/28 06:00:13;;;;;;;72.18;30.13;;;;;;;-145.01;100.00;64805.59;4995213;28;20022;-65
2021/08/28 06:02:38;;;;;;;77.85;30.88;;;;;;;-145.01;100.00;64805.59;4995466;28;20389;-65
2021/08/28 06:05:10;;;;;;;82.70;31.80;;;;;;;-145.01;100.00;64805.59;4993693;28;20061;-65
2021/08/28 06:07:36;;;;;;;76.53;30.90;;;;;;;-145.01;100.00;64805.59;4995323;28;20527;-65
2021/08/28 06:10:01;;;;;;;76.15;30.02;;;;;;;-145.01;100.00;64805.59;4977136;28;20077;-65
2021/08/28 06:12:27;;;;;;;74.88;30.63;;;;;;;-145.01;100.00;64805.59;4995123;28;20045;-65
2021/08/28 06:14:52;;;;;;;72.05;27.85;;;;;;;-145.01;100.00;64805.59;4995278;28;20137;-65
2021/08/28 06:17:17;;;;;;;67.30;28.58;;;;;;;-145.01;100.00;64805.59;4993195;28;20492;-65
2021/08/28 06:19:43;;;;;;;72.82;28.90;;;;;;;-145.01;100.00;64805.59;4995021;28;20030;-65
2021/08/28 06:22:08;;;;;;;71.72;29.60;;;;;;;-145.01;100.00;64805.59;4993264;28;20042;-66
2021/08/28 06:24:34;;;;;;;78.40;30.00;;;;;;;-145.01;100.00;64805.59;4993762;28;20101;-65
2021/08/28 06:26:59;;;;;;;69.32;29.55;;;;;;;-145.01;100.00;64805.59;4994509;28;20038;-65
2021/08/28 06:29:25;;;;;;;74.47;28.88;;;;;;;-145.01;100.00;64805.59;4993639;28;20432;-63
2021/08/28 06:31:50;;;;;;;75.00;29.10;;;;;;;-145.01;100.00;64805.59;4994050;28;20043;-63
2021/08/28 06:34:15;;;;;;;73.45;28.73;;;;;;;-145.01;100.00;64805.59;4994321;28;20031;-63
2021/08/28 06:36:41;;;;;;;72.75;29.35;;;;;;;-145.01;100.00;64805.59;4994102;28;20078;-63
2021/08/28 06:39:07;;;;;;;71.70;30.08;;;;;;;-145.01;100.00;64805.59;4993347;28;20038;-63
2021/08/28 06:41:32;;;;;;;72.80;28.65;;;;;;;-145.01;100.00;64805.59;4994332;28;20035;-64
2021/08/28 06:43:58;;;;;;;79.28;28.65;;;;;;;-145.01;100.00;64805.59;4994721;28;20026;-66
2021/08/28 06:46:23;;;;;;;75.60;30.33;;;;;;;-145.01;100.00;64805.59;4994032;28;20042;-64
2021/08/28 06:48:49;;;;;;;80.47;30.23;;;;;;;-145.01;100.00;64805.59;4993190;28;20088;-64
2021/08/28 06:51:14;;;;;;;79.28;31.05;;;;;;;-145.01;100.00;64805.59;4994190;28;20031;-65
2021/08/28 06:53:40;;;;;;;73.22;30.65;;;;;;;-145.01;100.00;64805.59;4993137;28;20038;-65
2021/08/28 06:56:05;;;;;;;81.47;30.98;;;;;;;-145.01;100.00;64805.59;4994276;28;20046;-64
2021/08/28 06:58:31;;;;;;;81.55;30.60;;;;;;;-145.01;100.00;64805.59;4994728;28;20026;-64
2021/08/28 07:00:56;;;;;;;69.20;29.45;;;;;;;-145.01;100.00;64805.59;4994117;28;20038;-64
2021/08/28 07:03:22;;;;;;;75.63;30.23;;;;;;;-145.01;100.00;64805.59;4994566;28;20031;-65
2021/08/28 07:05:47;;;;;;;76.43;30.75;;;;;;;-145.01;100.00;64805.59;4994102;28;20034;-66
2021/08/28 07:08:12;;;;;;;83.85;31.42;;;;;;;-145.01;100.00;64805.59;4994190;28;20389;-65
2021/08/28 07:10:38;;;;;;;84.50;30.92;;;;;;;-145.01;100.00;64805.59;4993690;28;20038;-65
2021/08/28 07:13:03;;;;;;;69.47;29.85;;;;;;;-145.01;100.00;64805.59;4992724;28;20034;-65
2021/08/28 07:15:29;;;;;;;79.18;29.85;;;;;;;-145.01;100.00;64805.59;4993684;28;20042;-65
2021/08/28 07:17:54;;;;;;;76.70;31.42;;;;;;;-145.01;100.00;64805.59;4992822;28;20093;-65
2021/08/28 07:20:20;;;;;;;75.80;29.27;;;;;;;-145.01;100.00;64805.59;4993010;28;20433;-65
2021/08/28 07:22:45;;;;;;;78.00;30.27;;;;;;;-145.01;100.00;64805.59;4993852;28;20061;-65
2021/08/28 07:25:11;;;;;;;75.15;28.30;;;;;;;-145.01;100.00;64805.59;4993745;28;20026;-65
2021/08/28 07:27:37;;;;;;;79.32;28.40;;;;;;;-145.01;100.00;64805.59;4992453;28;20391;-65
2021/08/28 07:30:03;;;;;;;66.00;28.17;;;;;;;-145.01;100.00;64805.59;4992050;28;20113;-66
2021/08/28 07:32:29;;;;;;;68.47;27.58;;;;;;;-145.01;100.00;64805.59;4993731;28;20022;-65
2021/08/28 07:34:55;;;;;;;60.05;26.85;;;;;;;-145.01;100.00;64805.59;4992538;28;20480;-65
2021/08/28 07:37:22;;;;;;;57.75;26.27;;;;;;;-145.01;100.00;64805.59;4991884;28;20125;-66
2021/08/28 07:39:48;;;;;;;80.22;31.38;;;;;;;-145.01;100.00;64805.59;4993464;28;20380;-66
2021/08/28 07:42:13;;;;;;;81.57;32.38;;;;;;;-145.01;100.00;64805.59;4993209;28;20038;-65
2021/08/28 07:44:39;;;;;;;85.10;33.30;;;;;;;-145.01;100.00;64805.59;4991916;28;20092;-66
2021/08/28 07:47:04;;;;;;;82.93;32.97;;;;;;;-145.01;100.00;64805.59;4991659;28;20038;-66
2021/08/28 07:49:29;;;;;;;75.47;32.17;;;;;;;-145.01;100.00;64805.59;4993506;28;20063;-65
2021/08/28 07:51:55;;;;;;;76.85;31.00;;;;;;;-145.01;100.00;64805.59;4991662;28;20118;-66
2021/08/28 07:54:20;;;;;;;79.80;29.40;;;;;;;-145.01;100.00;64805.59;4993004;28;20362;-65
2021/08/28 07:56:46;;;;;;;67.97;28.67;;;;;;;-145.01;100.00;64805.59;4992757;28;20034;-65
2021/08/28 07:59:11;;;;;;;71.28;29.77;;;;;;;-145.01;100.00;64805.59;4992060;28;20022;-66
2021/08/28 08:01:37;;;;;;;70.07;28.67;;;;;;;-145.01;100.00;64805.59;4992949;28;20041;-65
2021/08/28 08:04:02;;;;;;;67.43;27.48;;;;;;;-145.01;100.00;64805.59;4993306;28;20034;-66
2021/08/28 08:06:28;;;;;;;66.43;28.85;;;;;;;-145.01;100.00;64805.59;4992798;28;20142;-66
2021/08/28 08:08:53;;;;;;;72.25;28.48;;;;;;;-145.01;100.00;64805.59;4993017;28;20031;-66
2021/08/28 08:11:18;;;;;;;73.22;30.42;;;;;;;-145.01;100.00;64805.59;4992751;28;20039;-65
2021/08/28 08:13:44;;;;;;;70.55;28.55;;;;;;;-145.01;100.00;64805.59;4993206;28;20034;-66
2021/08/28 08:16:10;;;;;;;71.53;30.10;;;;;;;-145.01;100.00;64805.59;4992812;28;20082;-66
2021/08/28 08:18:35;;;;;;;67.25;27.58;;;;;;;-145.01;100.00;64805.59;4993070;28;20029;-66
2021/08/28 08:21:01;;;;;;;64.30;27.08;;;;;;;-145.01;100.00;64805.59;4991525;28;20034;-66
2021/08/28 08:23:27;;;;;;;60.17;26.65;;;;;;;-145.01;100.00;64805.59;4992097;28;20030;-66
2021/08/28 08:25:52;;;;;;;68.85;28.48;;;;;;;-145.01;100.00;64805.59;4992611;28;20033;-66
2021/08/28 08:28:17;;;;;;;42.88;20.95;;;;;;;-145.01;100.00;64805.59;4991820;28;20018;-66
2021/08/28 08:30:43;;;;;;;44.55;20.70;;;;;;;-145.01;100.00;64805.59;4992710;28;20042;-66
2021/08/28 08:33:08;;;;;;;43.83;17.92;;;;;;;-145.01;100.00;64805.59;4992982;28;20389;-66
2021/08/28 08:35:34;;;;;;;28.92;14.45;;;;;;;-145.01;100.00;64805.59;4992501;28;20038;-66
2021/08/28 08:38:00;;;;;;;22.45;11.75;;;;;;;-145.01;100.00;64805.59;4991740;28;20022;-66
2021/08/28 08:40:26;;;;;;;14.52;7.85;;;;;;;-145.01;100.00;64805.59;4992309;28;20493;-66
2021/08/28 08:42:55;;;;;;;17.42;9.57;;;;;;;-145.01;100.00;64805.59;4992864;28;20432;-66
2021/08/28 08:45:20;;;;;;;14.02;7.85;;;;;;;-145.01;100.00;64805.59;4975747;28;20050;-66
2021/08/28 08:47:46;;;;;;;17.30;8.43;;;;;;;-145.01;100.00;64805.59;4991774;28;20128;-66
2021/08/28 08:50:13;;;;;;;22.50;9.43;;;;;;;-145.01;100.00;64805.59;4974977;28;20503;-66
2021/08/28 08:52:39;;;;;;;27.30;12.70;;;;;;;-145.01;100.00;64805.59;4975962;28;20065;-66
2021/08/28 08:55:05;;;;;;;33.97;15.77;;;;;;;-145.01;100.00;64805.59;4992342;28;20038;-66
2021/08/28 08:57:30;;;;;;;39.70;15.98;;;;;;;-145.01;100.00;64805.59;4995544;28;20023;-66
2021/08/28 08:59:56;;;;;;;28.05;14.32;;;;;;;-145.01;100.00;64805.59;4995287;28;20031;-66
2021/08/28 09:02:21;;;;;;;36.10;16.15;;;;;;;-145.01;100.00;64805.59;4996194;28;20046;-66
2021/08/28 09:04:46;;;;;;;36.22;16.23;;;;;;;-145.01;100.00;64805.59;4995194;28;20037;-66
2021/08/28 09:07:14;;;;;;;39.53;16.55;;;;;;;-145.01;100.00;64805.59;4994603;28;20035;-66
2021/08/28 09:09:39;;;;;;;37.85;17.00;;;;;;;-145.01;100.00;64805.59;4996423;28;20081;-67
2021/08/28 09:12:06;;;;;;;36.47;15.57;;;;;;;-145.01;100.00;64805.59;4978551;28;20121;-67
2021/08/28 09:14:32;;;;;;;30.60;15.32;;;;;;;-145.01;100.00;64805.59;4996353;28;20030;-67
2021/08/28 09:16:58;;;;;;;35.22;15.45;;;;;;;-145.01;100.00;64805.59;4994523;28;20108;-67
2021/08/28 09:19:37;;;;;;;32.78;15.18;;;;;;;-145.01;100.00;64805.59;4978620;28;20022;-66
2021/08/28 09:22:05;;;;;;;36.75;16.23;;;;;;;-145.01;100.00;64805.59;4995814;28;20045;-66
2021/08/28 09:24:41;;;;;;;41.50;16.20;;;;;;;-145.01;100.00;64805.59;4994730;28;20085;-66
2021/08/28 09:27:06;;;;;;;34.22;15.35;;;;;;;-145.01;100.00;64805.59;4994274;28;20031;-66
2021/08/28 09:29:32;;;;;;;20.60;9.45;;;;;;;-145.01;100.00;64805.59;4995864;28;20081;-66
2021/08/28 09:31:57;;;;;;;23.23;11.18;;;;;;;-145.01;100.00;64805.59;4995538;28;20057;-66
2021/08/28 09:34:26;;;;;;;26.50;10.55;;;;;;;-145.01;100.00;64805.59;4995785;28;20027;-66
2021/08/28 09:36:55;;;;;;;19.23;9.95;;;;;;;-145.01;100.00;64805.59;4995319;28;20054;-66
2021/08/28 09:39:20;;;;;;;23.75;11.25;;;;;;;-145.01;100.00;64805.59;4995868;28;20077;-65
2021/08/28 09:41:53;;;;;;;45.95;21.75;;;;;;;-145.01;100.00;64805.59;4994062;28;20035;-65
2021/08/28 09:44:20;;;;;;;29.75;12.45;;;;;;;-145.01;100.00;64805.59;4978102;28;20031;-66
2021/08/28 09:46:45;;;;;;;30.92;13.55;;;;;;;-145.01;100.00;64805.59;4994029;28;20034;-66
2021/08/28 09:49:10;;;;;;;30.58;13.63;;;;;;;-145.01;100.00;64805.59;4994317;28;20027;-66
2021/08/28 09:51:40;;;;;;;22.50;9.82;;;;;;;-145.01;100.00;64805.59;4994212;28;20030;-66
2021/08/28 09:54:09;;;;;;;17.48;8.15;;;;;;;-145.01;100.00;64805.59;4978137;28;20473;-66
2021/08/28 09:56:41;;;;;;;26.73;11.15;;;;;;;-145.01;100.00;64805.59;4977645;28;20031;-66
2021/08/28 09:59:21;;;;;;;24.90;11.68;;;;;;;-145.01;100.00;64805.59;4994357;28;20059;-66
2021/08/28 10:01:47;;;;;;;;;;;;;;;-145.01;100.00;64805.59;4994216;28;20055;-66
2021/08/28 10:04:12;;;;;;;24.90;11.02;;;;;;;-145.01;100.00;64805.59;4995470;28;19956;-66
2021/08/28 10:06:44;;;;;;;26.73;11.60;;;;;;;-145.01;100.00;64805.59;4993347;28;20490;-66
2021/08/28 10:09:10;;;;;;;22.40;10.98;;;;;;;-145.01;100.00;64805.59;4995237;28;20124;-66
2021/08/28 10:11:35;;;;;;;24.00;11.38;;;;;;;-145.01;100.00;64805.59;4993715;28;20458;-66
2021/08/28 10:14:00;;;;;;;23.17;11.32;;;;;;;-145.01;100.00;64805.59;4995120;28;20034;-66
2021/08/28 10:16:26;;;;;;;19.42;10.07;;;;;;;-145.01;100.00;64805.59;4993551;28;20039;-66
2021/08/28 10:18:51;;;;;;;27.80;11.35;;;;;;;-145.01;100.00;64805.59;4977689;28;20022;-65
2021/08/28 10:21:17;;;;;;;19.05;9.52;;;;;;;-145.01;100.00;64805.59;4993487;28;20053;-66
2021/08/28 10:23:43;;;;;;;16.70;7.90;;;;;;;-145.01;100.00;64805.59;4977351;28;20034;-66
2021/08/28 10:26:10;;;;;;;18.05;7.28;;;;;;;-145.01;100.00;64805.59;4977174;28;20126;-66
2021/08/28 10:28:37;;;;;;;14.82;7.13;;;;;;;-145.01;100.00;64805.59;4993994;28;20029;-66
2021/08/28 10:31:04;;;;;;;15.10;7.10;;;;;;;-145.01;100.00;64805.59;4977287;28;20041;-66
2021/08/28 10:33:29;;;;;;;17.40;7.20;;;;;;;-145.01;100.00;64805.59;4993501;28;20030;-67
2021/08/28 10:35:55;;;;;;;16.55;8.98;;;;;;;-145.01;100.00;64805.59;4993412;28;20037;-67
2021/08/28 10:38:20;;;;;;;16.33;7.25;;;;;;;-145.01;100.00;64805.59;4993611;28;20034;-67
2021/08/28 10:40:45;;;;;;;16.90;7.32;;;;;;;-145.01;100.00;64805.59;4994379;28;20038;-66
2021/08/28 10:43:11;;;;;;;12.02;5.60;;;;;;;-145.01;100.00;64805.59;4994683;28;20034;-66
2021/08/28 10:45:38;;;;;;;9.57;5.72;;;;;;;-145.01;100.00;64805.59;4976596;28;20042;-66
2021/08/28 10:48:05;;;;;;;9.60;5.75;;;;;;;-145.01;100.00;64805.59;4992988;28;20030;-66
2021/08/28 10:50:32;;;;;;;14.60;6.22;;;;;;;-145.01;100.00;64805.59;4992775;28;20026;-66